Terminal Aerodrome Forecast
Issued by NWS Sioux Falls, SD

Home | Current Version | Previous Version | Graphics & Text | Print | Product List | Glossary Off
Versions: 1 2 3 4 5 6 7 8 9 10 11 12 13 14 15

000
FTUS43 KFSD 141100
TAFHON
TAF
KHON 141120Z 1412/1512 33009KT P6SM SCT200
     FM141300 33010KT P6SM BKN070
     FM141600 33015G23KT P6SM BKN045
     FM150100 35010KT P6SM SCT045
     FM150400 VRB05KT P6SM SKC=

USA.gov is the U.S. government's official web portal to all federal, state and local government web resources and services.